Time;durP1;ratioP1;P1;durP2;ratioP2;P2;SDS_P1;SDS_P2;PMS_P1;PMS_P2;Temp;Humidity;BMP_temperature;BMP_pressure;BME280_temperature;BME280_humidity;BME280_pressure;Samples;Min_cycle;Max_cycle;Signal;HPM_P1;HPM_P2
2022/02/01 00:00:15;;;;;;;19.87;4.03;;;3.40;99.90;;;;;;6252988;22;20026;-81
2022/02/01 00:02:46;;;;;;;17.03;3.70;;;3.50;99.90;;;;;;6248599;22;20120;-82
2022/02/01 00:05:32;;;;;;;17.83;3.70;;;3.50;99.90;;;;;;6201403;22;20016;-81
2022/02/01 00:37:18;;;;;;;11.80;3.30;;;3.80;99.90;;;;;;6250843;22;20030;-81
2022/02/01 00:39:45;;;;;;;15.60;2.93;;;3.80;99.90;;;;;;6199884;22;20140;-80
2022/02/01 00:42:12;;;;;;;20.40;3.73;;;3.80;99.90;;;;;;6249158;22;20077;-80
2022/02/01 00:44:39;;;;;;;18.13;3.73;;;3.80;99.90;;;;;;6274078;22;20447;-80
2022/02/01 00:47:07;;;;;;;14.97;2.77;;;3.80;99.90;;;;;;6273435;22;20026;-80
2022/02/01 00:49:35;;;;;;;17.50;3.97;;;3.80;99.90;;;;;;6218904;22;20023;-80
2022/02/01 00:52:01;;;;;;;18.17;3.13;;;3.70;99.90;;;;;;6244097;22;20064;-80
2022/02/01 00:54:30;;;;;;;16.47;4.20;;;3.70;99.90;;;;;;6196181;22;20058;-80
2022/02/01 00:56:56;;;;;;;17.60;3.40;;;3.60;99.90;;;;;;6247250;22;20021;-80
2022/02/01 00:59:22;;;;;;;21.97;3.90;;;3.60;99.90;;;;;;6247075;22;20072;-80
2022/02/01 01:01:48;;;;;;;17.20;3.80;;;3.60;99.90;;;;;;6248328;22;20386;-80
2022/02/01 01:04:14;;;;;;;19.63;4.13;;;3.70;99.90;;;;;;6272925;22;20015;-80
2022/02/01 01:06:39;;;;;;;18.60;3.57;;;3.60;99.90;;;;;;6223153;22;20022;-80
2022/02/01 01:09:05;;;;;;;18.73;3.67;;;3.60;99.90;;;;;;6222950;22;20031;-80
2022/02/01 01:11:31;;;;;;;22.40;4.17;;;3.60;99.90;;;;;;6222326;22;20027;-80
2022/02/01 01:43:49;;;;;;;15.37;3.20;;;3.60;99.90;;;;;;6276641;22;20050;-87
2022/02/01 01:54:27;;;;;;;18.87;3.07;;;3.70;99.90;;;;;;6252532;22;20073;-81
2022/02/01 01:56:56;;;;;;;18.83;3.40;;;3.70;99.90;;;;;;6244520;22;20015;-81
2022/02/01 01:59:23;;;;;;;19.83;3.20;;;3.70;99.90;;;;;;6270695;22;20015;-81
2022/02/01 02:01:50;;;;;;;16.33;2.83;;;3.70;99.90;;;;;;6247889;22;20022;-81
2022/02/01 02:04:19;;;;;;;18.77;3.67;;;3.70;99.90;;;;;;6248637;22;20015;-81
2022/02/01 02:06:45;;;;;;;15.00;2.80;;;3.70;99.90;;;;;;6221981;22;20026;-81
2022/02/01 02:09:12;;;;;;;15.43;2.67;;;3.70;99.90;;;;;;6221484;22;20098;-81
2022/02/01 02:12:37;;;;;;;15.03;3.77;;;3.70;99.90;;;;;;6221388;22;20015;-81
2022/02/01 02:14:31;;;;;;;18.77;3.47;;;3.70;99.90;;;;;;6241576;22;20027;-81
2022/02/01 02:16:59;;;;;;;17.07;3.60;;;3.80;99.90;;;;;;6251087;22;20023;-82
2022/02/01 02:19:31;;;;;;;17.63;2.87;;;3.80;99.90;;;;;;6250500;22;20015;-82
2022/02/01 02:22:03;;;;;;;18.70;3.43;;;3.90;99.90;;;;;;6274592;22;20019;-82
2022/02/01 02:24:42;;;;;;;19.70;3.43;;;3.90;99.90;;;;;;6272606;22;20478;-82
2022/02/01 02:27:08;;;;;;;14.37;2.57;;;3.90;99.90;;;;;;6246030;22;20565;-82
2022/02/01 02:29:35;;;;;;;16.47;3.03;;;3.90;99.90;;;;;;6245951;22;20444;-82
2022/02/01 02:32:03;;;;;;;13.70;2.77;;;3.90;99.90;;;;;;6249042;22;20022;-82
2022/02/01 02:34:29;;;;;;;18.03;3.33;;;4.00;99.90;;;;;;6249012;22;20015;-81
2022/02/01 02:37:01;;;;;;;14.60;2.93;;;4.00;99.90;;;;;;6274188;22;20581;-82
2022/02/01 02:39:47;;;;;;;13.93;3.10;;;4.00;99.90;;;;;;6225350;22;20153;-82
2022/02/01 02:42:30;;;;;;;12.17;3.13;;;4.00;99.90;;;;;;6228116;22;20058;-81
2022/02/01 02:45:09;;;;;;;15.13;2.80;;;4.10;99.90;;;;;;6249284;22;20030;-82
2022/02/01 02:47:35;;;;;;;15.83;2.50;;;4.10;99.90;;;;;;6204266;22;20078;-82
2022/02/01 02:50:02;;;;;;;13.03;2.33;;;4.20;99.90;;;;;;6224698;22;20116;-81
2022/02/01 02:52:28;;;;;;;9.77;2.63;;;4.10;99.90;;;;;;6249142;22;20470;-82
2022/02/01 02:54:55;;;;;;;11.07;2.23;;;4.20;99.90;;;;;;6274083;22;20019;-82
2022/02/01 02:57:21;;;;;;;11.63;2.57;;;4.20;99.90;;;;;;6249397;22;20011;-82
2022/02/01 02:59:47;;;;;;;14.67;2.60;;;4.20;99.90;;;;;;6222834;22;20106;-82
2022/02/01 03:02:13;;;;;;;12.17;2.33;;;4.10;99.90;;;;;;6247499;22;20023;-81
2022/02/01 03:04:39;;;;;;;11.47;2.47;;;4.20;99.90;;;;;;6197619;22;20023;-82
2022/02/01 03:07:06;;;;;;;12.57;2.30;;;4.10;99.90;;;;;;6199078;22;20047;-81
2022/02/01 03:09:38;;;;;;;13.03;2.50;;;4.20;99.90;;;;;;6221976;22;20108;-81
2022/02/01 03:12:04;;;;;;;11.20;2.20;;;4.20;99.90;;;;;;6247164;22;20394;-81
2022/02/01 03:14:53;;;;;;;11.37;2.20;;;4.20;99.90;;;;;;6248062;22;20094;-81
2022/02/01 03:19:55;;;;;;;12.13;2.40;;;4.20;99.90;;;;;;6249397;22;20106;-82
2022/02/01 03:22:23;;;;;;;11.85;2.05;;;4.20;99.90;;;;;;6271928;22;20068;-82
2022/02/01 03:24:50;;;;;;;9.87;2.17;;;4.20;99.90;;;;;;6243298;22;20459;-82
2022/02/01 03:27:17;;;;;;;11.03;2.57;;;4.10;99.90;;;;;;6271432;22;20035;-82
2022/02/01 03:29:43;;;;;;;14.50;2.60;;;4.10;99.90;;;;;;6248982;22;20019;-82
2022/02/01 03:32:09;;;;;;;14.07;2.43;;;4.10;99.90;;;;;;6224473;22;20027;-82
2022/02/01 03:34:35;;;;;;;14.67;2.53;;;4.00;99.90;;;;;;6222962;22;20011;-82
2022/02/01 03:37:02;;;;;;;11.03;2.27;;;3.90;99.90;;;;;;6223707;22;20026;-81
2022/02/01 03:39:30;;;;;;;14.03;2.93;;;3.90;99.90;;;;;;6274968;22;20015;-81
2022/02/01 03:41:57;;;;;;;9.20;2.10;;;4.00;99.90;;;;;;6274492;22;20022;-81
2022/02/01 03:44:25;;;;;;;11.33;2.63;;;3.80;99.90;;;;;;6225053;22;20490;-81
2022/02/01 03:49:25;;;;;;;10.20;2.27;;;3.80;99.90;;;;;;6245661;22;20027;-82
2022/02/01 03:51:51;;;;;;;10.40;1.87;;;3.80;99.90;;;;;;6246624;22;20018;-82
2022/02/01 03:54:17;;;;;;;14.27;2.00;;;3.80;99.90;;;;;;6247425;22;20077;-82
2022/02/01 03:56:42;;;;;;;10.60;2.63;;;3.70;99.90;;;;;;6220008;22;20440;-81
2022/02/01 03:59:08;;;;;;;10.93;1.90;;;3.80;99.90;;;;;;6248303;22;20018;-82
2022/02/01 04:01:34;;;;;;;11.47;2.10;;;3.80;99.90;;;;;;6248387;22;20080;-83
2022/02/01 04:04:00;;;;;;;7.67;1.27;;;3.80;99.90;;;;;;6248276;22;20015;-82
2022/02/01 04:06:26;;;;;;;9.80;1.60;;;3.80;99.90;;;;;;6198698;22;20015;-81
2022/02/01 04:08:51;;;;;;;8.13;1.90;;;3.90;99.90;;;;;;6223375;22;20050;-82
2022/02/01 04:11:17;;;;;;;10.90;1.87;;;3.90;99.90;;;;;;6223508;22;20256;-83
2022/02/01 04:13:43;;;;;;;12.13;2.30;;;3.90;99.90;;;;;;6248383;22;20015;-82
2022/02/01 04:16:09;;;;;;;9.53;1.87;;;3.90;99.90;;;;;;6249029;22;20019;-82
2022/02/01 04:18:35;;;;;;;10.87;2.37;;;3.90;99.90;;;;;;6222904;22;20019;-83
2022/02/01 04:21:00;;;;;;;11.07;2.10;;;3.90;99.90;;;;;;6248427;22;20018;-83
2022/02/01 04:23:26;;;;;;;12.87;2.10;;;3.90;99.90;;;;;;6245960;22;20023;-81
2022/02/01 04:25:52;;;;;;;11.37;2.43;;;3.90;99.90;;;;;;6267567;22;20023;-82
2022/02/01 04:28:18;;;;;;;10.67;1.97;;;3.90;99.90;;;;;;6219878;22;20109;-82
2022/02/01 04:30:45;;;;;;;13.00;2.30;;;3.90;99.90;;;;;;6247327;22;20059;-82
2022/02/01 04:33:12;;;;;;;14.60;2.20;;;3.90;99.90;;;;;;6224223;22;20019;-82
2022/02/01 04:35:38;;;;;;;12.50;2.03;;;4.00;99.90;;;;;;6222925;22;20019;-82
2022/02/01 04:38:04;;;;;;;14.03;2.70;;;3.90;99.90;;;;;;6248773;22;20022;-83
2022/02/01 04:40:33;;;;;;;9.20;2.30;;;3.90;99.90;;;;;;6248268;22;20095;-82
2022/02/01 04:43:00;;;;;;;11.97;2.60;;;3.90;99.90;;;;;;6198865;22;20344;-82
2022/02/01 04:45:25;;;;;;;9.87;1.70;;;3.90;99.90;;;;;;6199194;22;20478;-82
2022/02/01 04:47:52;;;;;;;9.53;1.80;;;4.00;99.90;;;;;;6221875;22;20023;-82
2022/02/01 04:50:23;;;;;;;10.43;1.60;;;4.00;99.90;;;;;;6224724;22;20538;-81
2022/02/01 04:52:52;;;;;;;;;;;4.10;99.90;;;;;;6249102;22;20456;-84
2022/02/01 04:55:18;;;;;;;10.90;1.93;;;4.00;99.90;;;;;;6248883;22;19914;-83
2022/02/01 04:57:54;;;;;;;12.13;2.17;;;4.10;99.90;;;;;;6223890;22;20437;-83
2022/02/01 05:00:22;;;;;;;13.43;1.93;;;4.10;99.90;;;;;;6250429;22;20333;-84
2022/02/01 05:02:48;;;;;;;9.63;1.90;;;4.10;99.90;;;;;;6223181;22;20019;-83
2022/02/01 05:05:13;;;;;;;13.00;2.10;;;4.10;99.90;;;;;;6250567;22;20068;-83
2022/02/01 05:07:39;;;;;;;13.13;2.17;;;4.10;99.90;;;;;;6199293;22;20011;-84
2022/02/01 05:10:06;;;;;;;10.50;2.53;;;4.10;99.90;;;;;;6250772;22;20015;-82
2022/02/01 05:12:36;;;;;;;9.30;2.00;;;4.10;99.90;;;;;;6225397;22;20015;-82
2022/02/01 05:15:06;;;;;;;;;;;4.10;99.90;;;;;;6251098;22;20464;-83
2022/02/01 05:17:35;;;;;;;11.65;2.28;;;4.10;99.90;;;;;;6250301;22;19948;-83
2022/02/01 05:20:09;;;;;;;11.20;2.30;;;4.10;99.90;;;;;;6225683;22;20019;-83
2022/02/01 05:22:35;;;;;;;12.93;2.73;;;4.10;99.90;;;;;;6221792;22;20440;-84
2022/02/01 05:25:01;;;;;;;12.00;2.73;;;4.20;99.90;;;;;;6219454;22;20444;-84
2022/02/01 05:27:30;;;;;;;11.03;2.70;;;4.20;99.90;;;;;;6245685;22;20016;-85
2022/02/01 05:29:57;;;;;;;12.50;2.50;;;4.20;99.90;;;;;;6219742;22;20024;-84
2022/02/01 05:32:25;;;;;;;12.50;2.63;;;4.20;99.90;;;;;;6220583;22;20475;-85
2022/02/01 05:34:56;;;;;;;11.97;2.67;;;4.20;99.90;;;;;;6220060;22;20030;-84
2022/02/01 05:37:22;;;;;;;17.60;2.87;;;4.30;99.90;;;;;;6245141;22;20740;-84
2022/02/01 05:39:48;;;;;;;10.53;2.47;;;4.30;99.90;;;;;;6244187;22;20444;-84
2022/02/01 05:42:18;;;;;;;18.77;3.10;;;4.30;99.90;;;;;;6219895;22;20102;-84
2022/02/01 05:44:44;;;;;;;13.10;2.95;;;4.40;99.90;;;;;;6244324;22;20166;-84
2022/02/01 05:47:13;;;;;;;15.00;3.00;;;4.40;99.90;;;;;;6270109;22;20026;-83
2022/02/01 05:49:41;;;;;;;16.63;3.03;;;4.40;99.90;;;;;;6244480;22;20070;-84
2022/02/01 05:52:07;;;;;;;13.63;3.30;;;4.40;99.90;;;;;;6243910;22;20648;-83
2022/02/01 05:54:32;;;;;;;15.97;3.43;;;4.40;99.90;;;;;;6245279;22;20016;-84
2022/02/01 05:57:03;;;;;;;15.33;3.27;;;4.40;99.90;;;;;;6193601;22;20505;-83
2022/02/01 05:59:28;;;;;;;16.48;3.08;;;4.50;99.90;;;;;;6218272;22;20031;-83
2022/02/01 06:01:55;;;;;;;15.63;3.77;;;4.50;99.90;;;;;;6215965;22;20023;-84
2022/02/01 06:04:21;;;;;;;12.73;2.53;;;4.50;99.90;;;;;;6217924;22;20385;-84
2022/02/01 06:06:48;;;;;;;13.17;3.03;;;4.50;99.90;;;;;;6216556;22;20026;-83
2022/02/01 06:09:16;;;;;;;15.40;3.10;;;4.60;99.90;;;;;;6217603;22;20016;-83
2022/02/01 06:11:42;;;;;;;17.00;3.73;;;4.60;99.90;;;;;;6242362;22;20488;-83
2022/02/01 06:14:08;;;;;;;15.20;3.57;;;4.60;99.90;;;;;;6243304;22;20051;-84
2022/02/01 06:16:34;;;;;;;16.73;3.90;;;4.70;99.90;;;;;;6217581;22;20016;-85
2022/02/01 06:18:59;;;;;;;17.17;3.63;;;4.70;99.90;;;;;;6217237;22;20077;-84
2022/02/01 06:21:28;;;;;;;16.07;3.67;;;4.70;99.90;;;;;;6217537;22;20084;-83
2022/02/01 06:23:54;;;;;;;14.13;3.33;;;4.70;99.90;;;;;;6217967;22;20107;-84
2022/02/01 06:26:22;;;;;;;15.83;3.77;;;4.70;99.90;;;;;;6219553;22;20051;-85
2022/02/01 06:28:51;;;;;;;15.80;3.57;;;4.70;99.90;;;;;;6218117;22;20360;-85
2022/02/01 06:31:17;;;;;;;15.07;3.50;;;4.80;99.90;;;;;;6268289;22;20449;-85
2022/02/01 06:33:42;;;;;;;19.23;4.13;;;4.80;99.90;;;;;;6241883;22;20065;-84
2022/02/01 06:36:09;;;;;;;15.23;4.27;;;4.80;99.90;;;;;;6215990;22;20024;-84
2022/02/01 06:38:34;;;;;;;17.20;3.80;;;4.80;99.90;;;;;;6187343;22;20448;-84
2022/02/01 06:41:00;;;;;;;15.40;4.00;;;4.80;99.90;;;;;;6239291;22;20031;-84
2022/02/01 06:43:27;;;;;;;18.13;5.00;;;4.90;99.90;;;;;;6216558;22;20016;-84
2022/02/01 06:45:58;;;;;;;19.23;4.53;;;4.90;99.90;;;;;;6217316;22;20292;-84
2022/02/01 06:48:24;;;;;;;18.57;5.20;;;4.90;99.90;;;;;;6192318;22;20016;-84
2022/02/01 06:50:52;;;;;;;20.47;4.87;;;4.90;99.90;;;;;;6214853;22;20386;-83
2022/02/01 06:53:20;;;;;;;18.60;5.03;;;5.00;99.90;;;;;;6267513;22;20020;-82
2022/02/01 06:55:58;;;;;;;15.60;5.67;;;4.90;99.90;;;;;;6239111;22;20475;-83
2022/02/01 06:58:24;;;;;;;24.33;5.87;;;4.90;99.90;;;;;;6216718;22;20024;-82
2022/02/01 07:00:49;;;;;;;20.03;6.30;;;4.90;99.90;;;;;;6240285;22;20011;-82
2022/02/01 07:03:15;;;;;;;23.67;7.23;;;4.90;99.90;;;;;;6241823;22;20103;-83
2022/02/01 07:05:42;;;;;;;19.97;6.50;;;4.90;99.90;;;;;;6241013;22;20082;-83
2022/02/01 07:08:07;;;;;;;20.10;6.80;;;4.90;99.90;;;;;;6218457;22;20020;-83
2022/02/01 07:10:34;;;;;;;23.63;7.20;;;5.00;99.90;;;;;;6242409;22;20085;-82
2022/02/01 07:13:00;;;;;;;27.93;9.13;;;5.00;99.90;;;;;;6217339;22;20103;-83
2022/02/01 07:15:25;;;;;;;27.20;8.77;;;5.00;99.90;;;;;;6192348;22;20405;-83
2022/02/01 07:17:53;;;;;;;33.13;11.53;;;4.90;99.90;;;;;;6190333;22;20055;-82
2022/02/01 07:20:20;;;;;;;33.40;11.37;;;4.90;99.90;;;;;;6265546;22;20329;-81
2022/02/01 07:22:48;;;;;;;26.60;10.77;;;4.90;99.90;;;;;;6265730;22;20024;-81
2022/02/01 07:25:23;;;;;;;34.97;11.60;;;4.90;99.90;;;;;;6215278;22;20020;-80
2022/02/01 07:27:53;;;;;;;33.57;12.33;;;4.90;99.90;;;;;;6239910;22;20027;-79
2022/02/01 07:30:24;;;;;;;32.20;13.75;;;4.90;99.90;;;;;;6240440;22;20478;-81
2022/02/01 07:32:52;;;;;;;28.93;11.90;;;5.00;99.90;;;;;;6240894;22;20022;-80
2022/02/01 07:35:19;;;;;;;36.93;11.93;;;4.80;99.90;;;;;;6240642;22;20538;-80
2022/02/01 07:37:45;;;;;;;29.93;12.23;;;4.80;99.90;;;;;;6266593;22;20011;-79
2022/02/01 07:40:11;;;;;;;29.47;11.40;;;4.80;99.90;;;;;;6215271;22;20103;-80
2022/02/01 07:42:38;;;;;;;27.90;12.23;;;4.80;99.90;;;;;;6266391;22;20506;-78
2022/02/01 07:45:09;;;;;;;26.83;11.03;;;4.80;99.90;;;;;;6265781;22;20023;-79
2022/02/01 07:47:35;;;;;;;25.73;13.07;;;4.80;99.90;;;;;;6238372;22;20019;-79
2022/02/01 07:50:02;;;;;;;27.77;14.60;;;4.80;99.90;;;;;;6237186;22;20436;-80
2022/02/01 07:52:28;;;;;;;25.97;12.93;;;4.80;99.90;;;;;;6214246;22;20349;-82
2022/02/01 07:54:54;;;;;;;26.70;13.23;;;4.80;99.90;;;;;;6238288;22;20023;-79
2022/02/01 07:57:19;;;;;;;29.80;14.80;;;4.80;99.90;;;;;;6237630;22;20159;-79
2022/02/01 07:59:45;;;;;;;24.63;14.10;;;4.80;99.90;;;;;;6240153;22;20050;-79
2022/02/01 08:02:19;;;;;;;24.53;12.40;;;4.80;99.90;;;;;;6240280;22;20015;-79
2022/02/01 08:04:48;;;;;;;24.30;14.27;;;4.80;99.90;;;;;;6264217;22;20402;-80
2022/02/01 08:07:15;;;;;;;23.92;14.73;;;4.90;99.90;;;;;;6238606;22;20132;-80
2022/02/01 08:09:45;;;;;;;24.20;14.43;;;5.00;99.90;;;;;;6264740;22;20016;-77
2022/02/01 08:20:11;;;;;;;23.87;16.53;;;4.90;99.90;;;;;;6259364;22;20035;-79
2022/02/01 08:25:13;;;;;;;20.43;14.10;;;5.00;99.90;;;;;;6266742;22;20023;-77
2022/02/01 08:27:40;;;;;;;22.67;15.47;;;5.00;99.90;;;;;;6267109;22;20039;-79
2022/02/01 08:30:08;;;;;;;22.20;16.50;;;5.00;99.90;;;;;;6266831;22;20031;-77
2022/02/01 08:32:33;;;;;;;21.43;14.07;;;5.10;99.90;;;;;;6265771;22;20016;-80
2022/02/01 08:35:00;;;;;;;23.63;15.30;;;5.10;99.90;;;;;;6243047;22;20022;-79
2022/02/01 08:37:26;;;;;;;21.00;14.07;;;5.10;99.90;;;;;;6266710;22;20807;-78
2022/02/01 08:39:52;;;;;;;20.23;13.90;;;5.10;99.90;;;;;;6239741;22;20027;-80
2022/02/01 08:42:18;;;;;;;22.17;14.00;;;5.10;99.90;;;;;;6267930;22;20648;-77
2022/02/01 08:44:45;;;;;;;19.03;13.93;;;5.20;99.90;;;;;;6217730;22;20016;-78
2022/02/01 08:47:12;;;;;;;23.77;14.43;;;5.20;99.90;;;;;;6241725;22;20019;-78
2022/02/01 08:49:38;;;;;;;20.00;14.30;;;5.20;99.90;;;;;;6267509;22;20078;-78
2022/02/01 08:52:08;;;;;;;22.17;14.43;;;5.20;99.90;;;;;;6267701;22;20329;-77
2022/02/01 08:54:37;;;;;;;20.92;15.55;;;5.30;99.90;;;;;;6243158;22;20012;-77
2022/02/01 08:57:22;;;;;;;18.93;13.63;;;5.30;99.90;;;;;;6268179;22;20051;-77
2022/02/01 08:59:49;;;;;;;21.53;15.40;;;5.30;99.90;;;;;;6240559;22;20023;-78
2022/02/01 09:02:17;;;;;;;17.10;13.43;;;5.40;99.90;;;;;;6266195;22;20348;-81
2022/02/01 09:04:43;;;;;;;20.33;13.87;;;5.40;99.90;;;;;;6267277;22;20099;-79
2022/02/01 09:07:10;;;;;;;17.90;13.73;;;5.50;99.90;;;;;;6214113;22;20240;-78
2022/02/01 09:09:37;;;;;;;21.47;15.47;;;5.50;99.90;;;;;;6211476;22;20051;-79
2022/02/01 09:12:04;;;;;;;20.50;14.52;;;5.50;99.90;;;;;;6263705;22;20085;-80
2022/02/01 09:14:31;;;;;;;21.50;14.13;;;5.50;99.90;;;;;;6239168;22;20064;-79
2022/02/01 09:17:00;;;;;;;23.00;15.43;;;5.60;99.90;;;;;;6239178;22;20023;-79
2022/02/01 09:19:27;;;;;;;21.30;15.90;;;5.60;99.90;;;;;;6264539;22;20015;-78
2022/02/01 09:21:54;;;;;;;24.93;15.60;;;5.60;99.90;;;;;;6239945;22;20016;-78
2022/02/01 09:24:20;;;;;;;23.25;14.27;;;5.70;99.90;;;;;;6268690;22;20495;-79
2022/02/01 09:26:46;;;;;;;22.50;15.37;;;5.70;99.90;;;;;;6243264;22;20018;-77
2022/02/01 09:29:12;;;;;;;24.90;15.27;;;5.80;99.90;;;;;;6243455;22;20023;-79
2022/02/01 09:31:38;;;;;;;22.40;14.27;;;5.80;99.90;;;;;;6243289;22;20030;-77
2022/02/01 09:34:06;;;;;;;20.63;13.63;;;5.80;99.90;;;;;;6269847;22;20062;-77
2022/02/01 09:36:32;;;;;;;21.10;13.70;;;5.90;99.90;;;;;;6244668;22;20020;-78
2022/02/01 09:38:59;;;;;;;16.63;11.17;;;5.90;99.90;;;;;;6242370;22;20016;-78
2022/02/01 09:41:27;;;;;;;18.87;12.80;;;6.00;99.90;;;;;;6244415;22;20019;-78
2022/02/01 09:43:53;;;;;;;17.98;10.65;;;6.10;99.90;;;;;;6242314;22;20015;-79
2022/02/01 09:46:20;;;;;;;16.58;11.57;;;6.20;99.90;;;;;;6241846;22;20047;-78
2022/02/01 09:48:47;;;;;;;13.60;9.35;;;6.20;99.90;;;;;;6268919;22;20016;-77
2022/02/01 09:51:13;;;;;;;13.00;9.48;;;6.30;99.90;;;;;;6243042;22;20459;-77
2022/02/01 09:53:38;;;;;;;12.20;8.73;;;6.40;99.90;;;;;;6267700;22;20028;-77
2022/02/01 09:56:05;;;;;;;10.88;8.05;;;6.40;99.90;;;;;;6266812;22;20077;-77
2022/02/01 09:58:33;;;;;;;10.05;7.30;;;6.50;99.90;;;;;;6267285;22;20026;-78
2022/02/01 10:01:02;;;;;;;8.68;6.55;;;6.60;99.90;;;;;;6266608;22;20016;-77
2022/02/01 10:03:29;;;;;;;9.13;6.45;;;6.60;99.90;;;;;;6216035;22;20236;-77
2022/02/01 10:06:08;;;;;;;9.37;5.80;;;6.60;99.90;;;;;;6266900;22;20019;-77
2022/02/01 10:08:38;;;;;;;6.63;5.03;;;6.70;99.90;;;;;;6242814;22;20034;-77
2022/02/01 10:11:08;;;;;;;5.63;4.15;;;6.70;99.90;;;;;;6216087;22;20035;-77
2022/02/01 10:13:38;;;;;;;5.80;4.53;;;6.70;99.90;;;;;;6240227;22;20099;-78
2022/02/01 10:16:16;;;;;;;6.60;3.55;;;6.80;99.90;;;;;;6241306;22;20030;-76
2022/02/01 10:18:42;;;;;;;5.28;2.97;;;6.80;99.90;;;;;;6218606;22;20022;-76
2022/02/01 10:21:13;;;;;;;4.20;2.72;;;6.90;99.90;;;;;;6244496;22;20024;-77
2022/02/01 10:23:42;;;;;;;3.00;2.20;;;6.90;99.90;;;;;;6272546;22;20034;-77
2022/02/01 10:26:20;;;;;;;5.65;2.72;;;6.90;99.90;;;;;;6271982;22;20475;-76
2022/02/01 10:31:30;;;;;;;4.10;2.22;;;7.00;99.90;;;;;;6274233;22;20027;-77
2022/02/01 10:34:25;;;;;;;2.92;1.88;;;7.00;99.90;;;;;;6248104;22;20023;-75
2022/02/01 10:36:50;;;;;;;5.03;2.20;;;7.10;99.90;;;;;;6273655;22;20438;-76
2022/02/01 10:39:21;;;;;;;4.05;2.20;;;7.10;99.90;;;;;;6273165;22;20019;-76
2022/02/01 10:42:00;;;;;;;3.10;2.05;;;7.10;99.90;;;;;;6247939;22;20015;-76
2022/02/01 10:44:48;;;;;;;4.00;2.10;;;7.20;99.90;;;;;;6271906;22;20098;-75
2022/02/01 10:47:33;;;;;;;5.05;2.25;;;7.20;99.90;;;;;;6270398;22;20069;-76
2022/02/01 10:50:03;;;;;;;3.65;2.20;;;7.30;99.90;;;;;;6272842;22;20019;-76
2022/02/01 10:52:34;;;;;;;5.10;2.83;;;7.30;99.90;;;;;;6242015;22;20015;-74
2022/02/01 10:55:01;;;;;;;4.38;2.63;;;7.30;99.90;;;;;;6270416;22;20364;-74
2022/02/01 10:57:31;;;;;;;5.80;2.80;;;7.30;99.90;;;;;;6221295;22;20034;-75
2022/02/01 10:59:57;;;;;;;4.93;3.17;;;7.40;99.90;;;;;;6271229;22;20073;-75
2022/02/01 11:02:28;;;;;;;6.80;3.70;;;7.40;99.90;;;;;;6217154;22;20046;-75
2022/02/01 11:04:54;;;;;;;7.15;4.15;;;7.40;99.90;;;;;;6242946;22;20044;-75
2022/02/01 11:07:21;;;;;;;8.52;4.47;;;7.50;99.90;;;;;;6244366;22;20012;-76
2022/02/01 11:09:47;;;;;;;9.27;4.38;;;7.60;99.90;;;;;;6219786;22;20023;-78
2022/02/01 11:12:13;;;;;;;7.82;4.38;;;7.60;99.90;;;;;;6245364;22;20019;-81
2022/02/01 11:14:46;;;;;;;11.23;5.20;;;7.60;99.90;;;;;;6246810;22;20085;-76
2022/02/01 11:17:18;;;;;;;9.45;5.22;;;7.70;99.90;;;;;;6245966;22;20041;-76
2022/02/01 11:19:58;;;;;;;8.13;5.15;;;7.70;99.90;;;;;;6246679;22;20011;-76
2022/02/01 11:22:30;;;;;;;9.38;5.32;;;7.80;99.90;;;;;;6246796;22;20020;-76
2022/02/01 11:25:24;;;;;;;9.00;4.78;;;7.80;99.90;;;;;;6246172;22;20034;-76
2022/02/01 11:30:39;;;;;;;10.57;4.93;;;7.90;99.90;;;;;;6272755;22;20098;-77
2022/02/01 11:33:07;;;;;;;7.60;4.32;;;7.90;99.90;;;;;;6245877;22;20634;-78
2022/02/01 11:35:34;;;;;;;11.63;5.45;;;7.80;99.90;;;;;;6219986;22;20023;-75
2022/02/01 11:38:18;;;;;;;8.00;4.22;;;7.90;99.90;;;;;;6268630;22;20023;-75
2022/02/01 11:40:58;;;;;;;7.43;3.65;;;7.90;99.90;;;;;;6243636;22;20406;-75
2022/02/01 11:43:26;;;;;;;7.97;3.88;;;7.90;99.90;;;;;;6272995;22;20053;-76
2022/02/01 11:45:54;;;;;;;6.90;4.00;;;8.00;99.90;;;;;;6247075;22;20015;-79
2022/02/01 11:48:36;;;;;;;7.97;3.97;;;8.00;99.90;;;;;;6249367;22;20382;-76
2022/02/01 11:51:06;;;;;;;10.68;4.60;;;8.00;99.90;;;;;;6248143;22;20461;-76
2022/02/01 11:53:39;;;;;;;8.25;3.78;;;8.00;99.90;;;;;;6245414;22;20102;-77
2022/02/01 11:56:07;;;;;;;9.20;4.10;;;8.00;99.90;;;;;;6271718;22;20087;-76
2022/02/01 11:58:46;;;;;;;8.90;4.35;;;8.00;99.90;;;;;;6246507;22;20576;-77
2022/02/01 12:01:24;;;;;;;8.77;4.05;;;8.00;99.90;;;;;;6271682;22;20011;-76
2022/02/01 12:04:09;;;;;;;10.77;4.72;;;8.10;99.90;;;;;;6270449;22;20019;-75
2022/02/01 12:06:46;;;;;;;13.95;5.25;;;8.10;99.90;;;;;;6246540;22;20026;-75
2022/02/01 12:09:21;;;;;;;13.48;5.35;;;8.10;99.90;;;;;;6245621;22;20328;-75
2022/02/01 12:11:53;;;;;;;12.32;5.63;;;8.10;99.90;;;;;;6245658;22;20022;-76
2022/02/01 12:14:19;;;;;;;12.13;6.07;;;8.10;99.90;;;;;;6246185;22;20062;-75
2022/02/01 12:16:47;;;;;;;16.27;6.50;;;8.10;99.90;;;;;;6245931;22;20012;-77
2022/02/01 12:19:19;;;;;;;15.45;7.72;;;8.20;99.90;;;;;;6195102;22;20415;-78
2022/02/01 12:22:01;;;;;;;23.25;8.52;;;8.20;99.90;;;;;;6265465;22;20016;-76
2022/02/01 12:24:30;;;;;;;22.20;8.80;;;8.20;99.90;;;;;;6241775;22;20020;-75
2022/02/01 12:26:56;;;;;;;20.92;8.30;;;8.20;99.90;;;;;;6215207;22;20535;-75
2022/02/01 12:29:24;;;;;;;23.23;8.90;;;8.20;99.90;;;;;;6216153;22;20016;-79
2022/02/01 12:31:52;;;;;;;27.77;8.55;;;8.20;99.90;;;;;;6266472;22;20452;-77
2022/02/01 12:34:20;;;;;;;23.63;8.80;;;8.30;99.90;;;;;;6242198;22;20470;-77
2022/02/01 12:36:52;;;;;;;22.17;7.78;;;8.30;99.90;;;;;;6241495;22;20012;-76
2022/02/01 12:39:35;;;;;;;21.17;6.80;;;8.30;99.90;;;;;;6266577;22;20019;-81
2022/02/01 12:42:28;;;;;;;21.83;8.32;;;8.30;99.90;;;;;;6265989;22;20475;-77
2022/02/01 12:47:39;;;;;;;17.92;6.55;;;8.40;99.90;;;;;;6265157;22;20028;-78
2022/02/01 12:50:05;;;;;;;24.60;6.68;;;8.50;99.90;;;;;;6213750;22;20052;-77
2022/02/01 12:52:34;;;;;;;22.98;6.65;;;8.50;99.90;;;;;;6239535;22;20020;-77
2022/02/01 12:55:08;;;;;;;23.45;5.72;;;8.50;99.90;;;;;;6239431;22;20016;-78
2022/02/01 12:57:35;;;;;;;26.02;6.78;;;8.50;99.90;;;;;;6264813;22;20019;-76
2022/02/01 13:00:12;;;;;;;26.40;6.10;;;8.60;99.90;;;;;;6238111;22;20027;-77
2022/02/01 13:02:38;;;;;;;24.05;5.78;;;8.60;99.90;;;;;;6267292;22;20015;-77
2022/02/01 13:05:13;;;;;;;21.98;5.72;;;8.60;99.90;;;;;;6242072;22;20098;-77
2022/02/01 13:21:23;;;;;;;23.02;5.30;;;8.70;99.90;;;;;;6269486;22;20028;-75
2022/02/01 13:23:52;;;;;;;28.63;5.20;;;8.70;99.90;;;;;;6269189;22;20030;-76
2022/02/01 13:26:34;;;;;;;22.40;4.70;;;8.70;99.90;;;;;;6269278;22;20023;-80
2022/02/01 13:29:03;;;;;;;25.25;5.40;;;8.70;99.90;;;;;;6269074;22;20027;-78
2022/02/01 13:31:37;;;;;;;23.58;4.93;;;8.70;99.90;;;;;;6269540;22;20042;-82
2022/02/01 13:34:05;;;;;;;22.73;4.90;;;8.80;99.90;;;;;;6270547;22;20523;-77
2022/02/01 13:36:33;;;;;;;22.70;4.65;;;8.80;99.90;;;;;;6244271;22;20020;-79
2022/02/01 13:39:01;;;;;;;28.48;5.50;;;8.80;99.90;;;;;;6241764;22;20020;-78
2022/02/01 13:41:29;;;;;;;20.48;5.20;;;8.80;99.90;;;;;;6243383;22;20090;-78
2022/02/01 13:43:57;;;;;;;22.02;4.50;;;8.80;99.90;;;;;;6241156;22;20478;-79
2022/02/01 13:46:24;;;;;;;25.80;4.93;;;8.80;99.90;;;;;;6217475;22;20028;-77
2022/02/01 13:49:08;;;;;;;27.05;4.55;;;8.80;99.90;;;;;;6267542;22;20077;-77
2022/02/01 13:51:50;;;;;;;23.73;4.10;;;8.80;99.90;;;;;;6242424;22;20227;-76
2022/02/01 13:54:17;;;;;;;25.02;4.55;;;8.80;99.90;;;;;;6268550;22;20456;-77
2022/02/01 13:56:46;;;;;;;24.30;4.22;;;8.80;99.90;;;;;;6266638;22;20047;-76
2022/02/01 13:59:23;;;;;;;25.50;4.57;;;8.80;99.90;;;;;;6242605;22;20024;-77
2022/02/01 14:02:04;;;;;;;20.40;4.15;;;8.90;99.90;;;;;;6266251;22;20274;-77
2022/02/01 14:04:45;;;;;;;27.30;4.68;;;8.90;99.90;;;;;;6240139;22;20026;-77
2022/02/01 14:07:33;;;;;;;25.42;4.32;;;8.80;99.90;;;;;;6239527;22;20402;-74
2022/02/01 14:26:14;;;;;;;29.80;5.45;;;8.90;99.90;;;;;;6269652;22;20023;-79
2022/02/01 14:36:20;;;;;;;22.25;4.22;;;8.90;99.90;;;;;;6242962;22;20024;-79
2022/02/01 14:39:02;;;;;;;25.05;5.15;;;8.90;99.90;;;;;;6192092;22;20333;-79
2022/02/01 14:46:45;;;;;;;21.50;5.13;;;8.90;99.90;;;;;;6238687;22;20024;-76
2022/02/01 14:49:11;;;;;;;27.80;4.75;;;8.90;99.90;;;;;;6238873;22;20088;-79
2022/02/01 14:51:37;;;;;;;22.45;4.22;;;8.90;99.90;;;;;;6264770;22;20019;-77
2022/02/01 14:54:06;;;;;;;25.52;4.78;;;8.90;99.90;;;;;;6267185;22;20342;-78
2022/02/01 14:56:36;;;;;;;25.80;5.13;;;8.90;99.90;;;;;;6216835;22;20022;-79
2022/02/01 15:07:12;;;;;;;26.25;4.90;;;9.00;99.90;;;;;;6240539;22;20427;-78
2022/02/01 15:15:01;;;;;;;29.05;5.25;;;9.00;99.90;;;;;;6219618;22;20081;-79
2022/02/01 15:17:30;;;;;;;24.13;5.57;;;9.00;99.90;;;;;;6242867;22;20015;-79
2022/02/01 15:20:02;;;;;;;27.35;5.40;;;8.90;99.90;;;;;;6193884;22;20028;-81
2022/02/01 15:22:28;;;;;;;30.08;6.28;;;8.90;99.90;;;;;;6222961;22;20399;-79
2022/02/01 15:24:54;;;;;;;25.50;4.75;;;8.90;99.90;;;;;;6221658;22;20417;-78